createdAt,value
2019-01-03T00:01:01.098Z,11.17
2019-01-03T00:06:21.403Z,7.70
2019-01-03T00:11:38.291Z,7.67
2019-01-03T00:16:58.914Z,6.23
2019-01-03T00:22:23.236Z,4.77
2019-01-03T00:27:43.248Z,8.10
2019-01-03T00:33:10.191Z,6.23
2019-01-03T00:38:25.406Z,6.13
2019-01-03T00:43:45.512Z,9.33
2019-01-03T00:49:07.051Z,6.73
2019-01-03T00:54:34.278Z,7.87
2019-01-03T00:59:56.941Z,7.97
2019-01-03T01:05:33.424Z,7.13
2019-01-03T01:10:55.478Z,7.83
2019-01-03T01:16:16.110Z,8.17
2019-01-03T01:21:37.802Z,9.50
2019-01-03T01:26:57.884Z,6.07
2019-01-03T01:32:17.407Z,7.33
2019-01-03T01:37:50.337Z,6.63
2019-01-03T01:43:24.867Z,9.70
2019-01-03T01:48:44.973Z,5.27
2019-01-03T01:54:01.759Z,11.53
2019-01-03T01:59:31.929Z,6.13
2019-01-03T02:04:57.148Z,4.17
2019-01-03T02:10:11.005Z,10.00
2019-01-03T02:15:50.555Z,4.77
2019-01-03T02:21:27.064Z,4.30
2019-01-03T02:26:47.649Z,6.07
2019-01-03T02:32:09.054Z,9.47
2019-01-03T02:37:29.595Z,5.53
2019-01-03T02:42:44.403Z,6.47
2019-01-03T02:48:04.888Z,6.37
2019-01-03T02:53:19.777Z,4.97
2019-01-03T02:58:41.401Z,4.63
2019-01-03T03:04:05.052Z,5.83
2019-01-03T03:09:21.726Z,6.20
2019-01-03T03:14:55.458Z,3.47
2019-01-03T03:20:16.063Z,5.00
2019-01-03T03:25:34.760Z,3.57
2019-01-03T03:31:11.619Z,2.80
2019-01-03T03:36:42.374Z,6.53
2019-01-03T03:42:09.937Z,3.90
2019-01-03T03:47:30.095Z,4.33
2019-01-03T03:52:50.550Z,5.03
2019-01-03T03:58:24.428Z,4.17
2019-01-03T04:03:44.402Z,6.27
2019-01-03T04:09:11.726Z,4.47
2019-01-03T04:14:28.403Z,3.97
2019-01-03T04:19:49.966Z,3.83
2019-01-03T04:25:03.579Z,6.57
2019-01-03T04:30:19.922Z,3.27
2019-01-03T04:35:40.374Z,3.80
2019-01-03T04:41:00.405Z,3.53
2019-01-03T04:46:22.376Z,7.17
2019-01-03T04:51:52.178Z,4.40
2019-01-03T04:57:12.311Z,3.47
2019-01-03T05:02:37.767Z,5.53
2019-01-03T05:07:57.915Z,7.17
2019-01-03T05:13:34.552Z,3.40
2019-01-03T05:19:11.193Z,3.40
2019-01-03T05:24:35.810Z,11.83
2019-01-03T05:30:00.205Z,8.90
2019-01-03T05:35:14.586Z,6.40
2019-01-03T05:40:54.299Z,6.50
2019-01-03T05:46:14.868Z,7.40
2019-01-03T05:51:35.207Z,6.43
2019-01-03T05:56:55.064Z,7.27
2019-01-03T06:02:17.520Z,9.10
2019-01-03T06:07:45.013Z,7.57
2019-01-03T06:13:06.038Z,9.13
2019-01-03T06:18:26.056Z,6.50
2019-01-03T06:23:50.442Z,13.67
2019-01-03T06:29:21.150Z,8.40
2019-01-03T06:34:43.019Z,8.73
2019-01-03T06:40:19.498Z,10.17
2019-01-03T06:45:41.120Z,9.17
2019-01-03T06:51:04.418Z,7.00
2019-01-03T06:56:30.626Z,7.77
2019-01-03T07:02:01.099Z,7.63
2019-01-03T07:07:41.167Z,7.57
2019-01-03T07:13:08.740Z,9.10
2019-01-03T07:18:36.054Z,9.40
2019-01-03T07:24:00.649Z,8.90
2019-01-03T07:29:34.773Z,7.70
2019-01-03T07:35:14.453Z,5.50
2019-01-03T07:40:44.482Z,9.83
2019-01-03T07:46:04.546Z,4.93
2019-01-03T07:51:25.022Z,6.23
2019-01-03T07:56:45.688Z,5.83
2019-01-03T08:02:06.150Z,8.17
2019-01-03T08:07:35.114Z,6.80
2019-01-03T08:13:02.332Z,6.20
2019-01-03T08:18:31.634Z,8.07
2019-01-03T08:24:00.821Z,5.17
2019-01-03T08:29:18.468Z,7.00
2019-01-03T08:34:48.523Z,6.00
2019-01-03T08:40:11.818Z,7.67
2019-01-03T08:45:42.623Z,6.80
2019-01-03T08:51:19.078Z,5.23
2019-01-03T08:56:46.092Z,7.67
2019-01-03T09:02:06.554Z,7.67
2019-01-03T09:07:39.012Z,6.67
2019-01-03T09:12:56.059Z,6.03
2019-01-03T09:18:17.188Z,9.37
2019-01-03T09:23:48.216Z,6.40
2019-01-03T09:29:10.419Z,6.57
2019-01-03T09:34:24.424Z,6.13
2019-01-03T09:39:50.061Z,3.73
2019-01-03T09:44:52.031Z,5.80
2019-01-03T09:49:54.191Z,5.37
2019-01-03T09:54:56.099Z,4.53
2019-01-03T09:59:58.121Z,9.70
2019-01-03T10:05:12.845Z,4.73
2019-01-03T10:10:14.774Z,4.13
2019-01-03T10:15:16.892Z,4.77
2019-01-03T10:20:18.826Z,6.43
2019-01-03T10:25:20.734Z,7.67
2019-01-03T10:30:23.628Z,6.73
2019-01-03T10:35:25.543Z,7.47
2019-01-03T10:40:27.491Z,8.17
2019-01-03T10:45:29.411Z,6.63
2019-01-03T10:50:31.622Z,6.27
2019-01-03T10:55:33.538Z,7.70
2019-01-03T11:00:35.656Z,7.37
2019-01-03T11:05:37.932Z,6.93
2019-01-03T11:10:40.200Z,9.33
2019-01-03T11:15:43.700Z,8.63
2019-01-03T11:21:06.835Z,5.80
2019-01-03T11:26:09.554Z,6.10
2019-01-03T11:31:12.459Z,10.30
2019-01-03T11:36:14.987Z,5.03
2019-01-03T11:41:35.732Z,6.27
2019-01-03T11:46:57.072Z,8.07
2019-01-03T11:52:17.616Z,8.97
2019-01-03T11:57:38.082Z,8.63
2019-01-03T12:02:58.612Z,8.47
2019-01-03T12:08:19.115Z,8.60
2019-01-03T12:13:39.779Z,8.83
2019-01-03T12:19:01.384Z,10.47
2019-01-03T12:24:30.562Z,8.70
2019-01-03T12:29:49.248Z,12.93
2019-01-03T12:35:11.802Z,8.30
2019-01-03T12:40:35.514Z,10.67
2019-01-03T12:45:57.528Z,8.67
2019-01-03T12:51:19.311Z,8.27
2019-01-03T12:56:41.044Z,9.13
2019-01-03T13:02:02.897Z,9.60
2019-01-03T13:07:24.809Z,9.87
2019-01-03T13:12:49.022Z,13.83
2019-01-03T13:18:11.629Z,12.40
2019-01-03T13:23:41.598Z,14.23
2019-01-03T13:29:09.037Z,13.60
2019-01-03T13:34:34.113Z,13.37
2019-01-03T13:39:55.106Z,15.43
2019-01-03T13:45:16.582Z,13.40
2019-01-03T13:50:38.107Z,12.43
2019-01-03T14:02:35.168Z,16.33
2019-01-03T14:07:56.235Z,15.80
2019-01-03T14:13:17.636Z,17.90
2019-01-03T14:18:38.703Z,15.63
2019-01-03T14:23:59.947Z,19.23
2019-01-03T14:29:02.789Z,20.13
2019-01-03T14:34:06.977Z,17.57
2019-01-03T14:39:09.490Z,22.37
2019-01-03T14:44:37.152Z,17.63
2019-01-03T14:49:48.998Z,18.30
2019-01-03T14:54:53.204Z,20.17
2019-01-03T14:59:59.796Z,19.27
2019-01-03T15:05:14.310Z,18.03
2019-01-03T15:10:24.276Z,21.63
2019-01-03T15:15:47.133Z,19.50
2019-01-03T15:20:58.124Z,20.80
2019-01-03T15:26:02.359Z,23.03
2019-01-03T15:31:11.007Z,44.63
2019-01-03T15:36:16.367Z,22.40
2019-01-03T15:41:18.884Z,23.43
2019-01-03T15:46:21.216Z,22.23
2019-01-03T15:51:25.171Z,19.93
2019-01-03T15:56:28.783Z,24.83
2019-01-03T16:01:31.389Z,30.13
2019-01-03T16:06:39.023Z,24.10
2019-01-03T16:11:42.738Z,20.77
2019-01-03T16:16:45.671Z,18.33
2019-01-03T16:21:49.876Z,24.57
2019-01-03T16:26:52.914Z,23.03
2019-01-03T16:31:55.436Z,19.40
2019-01-03T16:36:57.805Z,21.30
2019-01-03T16:42:00.351Z,17.47
2019-01-03T16:47:05.021Z,19.93
2019-01-03T16:52:08.795Z,18.03
2019-01-03T16:57:11.083Z,19.63
2019-01-03T17:02:14.633Z,19.60
2019-01-03T17:07:18.241Z,19.13
2019-01-03T17:12:22.860Z,22.03
2019-01-03T17:17:26.586Z,17.93
2019-01-03T17:22:29.038Z,21.37
2019-01-03T17:27:32.417Z,21.13
2019-01-03T17:32:35.164Z,25.20
2019-01-03T17:37:37.628Z,20.43
2019-01-03T17:42:41.107Z,22.30
2019-01-03T17:47:43.609Z,22.33
2019-01-03T17:52:46.335Z,24.90
2019-01-03T17:57:48.812Z,20.97
2019-01-03T18:02:51.842Z,19.00
2019-01-03T18:07:55.407Z,22.93
2019-01-03T18:12:58.131Z,25.73
2019-01-03T18:18:00.793Z,22.87
2019-01-03T18:23:03.377Z,23.30
2019-01-03T18:28:07.975Z,25.33
2019-01-03T18:33:14.034Z,17.90
2019-01-03T18:38:16.611Z,21.10
2019-01-03T18:43:19.732Z,21.50
2019-01-03T18:48:23.846Z,22.13
2019-01-03T18:53:26.625Z,19.93
2019-01-03T18:58:29.950Z,18.93
2019-01-03T19:03:32.810Z,18.17
2019-01-03T19:08:36.510Z,17.70
2019-01-03T19:13:39.167Z,21.00
2019-01-03T19:18:41.847Z,22.73
2019-01-03T19:23:44.368Z,21.90
2019-01-03T19:28:46.965Z,20.53
2019-01-03T19:33:49.344Z,22.97
2019-01-03T19:38:52.074Z,21.13
2019-01-03T19:43:54.908Z,25.47
2019-01-03T19:48:57.515Z,19.60
2019-01-03T19:54:00.006Z,19.57
2019-01-03T19:59:02.419Z,21.40
2019-01-03T20:04:05.054Z,21.00
2019-01-03T20:09:07.567Z,23.73
2019-01-03T20:14:10.110Z,27.20
2019-01-03T20:19:14.028Z,21.23
2019-01-03T20:24:23.063Z,25.17
2019-01-03T20:29:28.615Z,22.07
2019-01-03T20:34:41.941Z,21.30
2019-01-03T20:39:47.528Z,21.83
2019-01-03T20:44:58.672Z,28.23
2019-01-03T20:50:10.960Z,23.77
2019-01-03T20:55:17.248Z,27.17
2019-01-03T21:00:21.880Z,20.57
2019-01-03T21:05:25.060Z,15.57
2019-01-03T21:10:27.799Z,21.20
2019-01-03T21:15:30.443Z,19.63
2019-01-03T21:20:33.582Z,18.10
2019-01-03T21:25:36.595Z,21.43
2019-01-03T21:30:41.184Z,18.23
2019-01-03T21:35:45.371Z,21.97
2019-01-03T21:47:07.705Z,22.77
2019-01-03T21:52:14.812Z,24.13
2019-01-03T21:57:21.919Z,23.50
2019-01-03T22:02:26.077Z,27.73
2019-01-03T22:07:30.909Z,21.47
2019-01-03T22:12:36.712Z,27.53
2019-01-03T22:17:39.569Z,21.70
2019-01-03T22:22:42.267Z,25.00
2019-01-03T22:27:46.326Z,26.53
2019-01-03T22:32:48.744Z,25.07
2019-01-03T22:37:51.447Z,23.53
2019-01-03T22:42:54.909Z,26.00
2019-01-03T22:47:57.836Z,30.73
2019-01-03T22:53:01.309Z,24.50
2019-01-03T22:58:06.839Z,30.47
2019-01-03T23:03:12.578Z,26.47
2019-01-03T23:08:15.514Z,29.17
2019-01-03T23:13:18.294Z,26.23
2019-01-03T23:18:21.128Z,26.80
2019-01-03T23:23:26.307Z,25.97
2019-01-03T23:28:29.238Z,27.97
2019-01-03T23:33:31.854Z,27.67
2019-01-03T23:38:34.542Z,27.63
2019-01-03T23:44:54.111Z,31.00
2019-01-03T23:50:03.788Z,36.83
2019-01-03T23:55:07.286Z,34.00
